sensor_id;sensor_type;location;lat;lon;timestamp;P1;durP1;ratioP1;P2;durP2;ratioP2
3149;SDS011;32503;47.748;8.960;2022-12-16T00:01:04;11.10;;;6.67;;
3149;SDS011;32503;47.748;8.960;2022-12-16T00:03:35;6.40;;;5.80;;
3149;SDS011;32503;47.748;8.960;2022-12-16T00:06:02;10.80;;;6.37;;
3149;SDS011;32503;47.748;8.960;2022-12-16T00:08:34;12.63;;;7.43;;
3149;SDS011;32503;47.748;8.960;2022-12-16T00:11:04;7.33;;;6.60;;
3149;SDS011;32503;47.748;8.960;2022-12-16T00:13:32;11.83;;;6.70;;
3149;SDS011;32503;47.748;8.960;2022-12-16T00:16:03;13.30;;;6.60;;
3149;SDS011;32503;47.748;8.960;2022-12-16T00:18:31;9.57;;;7.07;;
3149;SDS011;32503;47.748;8.960;2022-12-16T00:20:59;8.83;;;6.70;;
3149;SDS011;32503;47.748;8.960;2022-12-16T00:23:27;7.60;;;6.03;;
3149;SDS011;32503;47.748;8.960;2022-12-16T00:25:54;7.10;;;6.30;;
3149;SDS011;32503;47.748;8.960;2022-12-16T00:28:22;9.20;;;6.13;;
3149;SDS011;32503;47.748;8.960;2022-12-16T00:30:50;8.73;;;6.57;;
3149;SDS011;32503;47.748;8.960;2022-12-16T00:33:20;9.07;;;6.37;;
3149;SDS011;32503;47.748;8.960;2022-12-16T00:35:49;10.27;;;6.90;;
3149;SDS011;32503;47.748;8.960;2022-12-16T00:38:19;7.97;;;6.77;;
3149;SDS011;32503;47.748;8.960;2022-12-16T00:40:47;9.80;;;6.73;;
3149;SDS011;32503;47.748;8.960;2022-12-16T00:43:14;8.93;;;6.30;;
3149;SDS011;32503;47.748;8.960;2022-12-16T00:45:41;10.30;;;6.40;;
3149;SDS011;32503;47.748;8.960;2022-12-16T00:48:10;11.43;;;6.50;;
3149;SDS011;32503;47.748;8.960;2022-12-16T00:50:37;9.00;;;6.60;;
3149;SDS011;32503;47.748;8.960;2022-12-16T00:53:04;11.50;;;6.73;;
3149;SDS011;32503;47.748;8.960;2022-12-16T00:55:33;7.40;;;6.50;;
3149;SDS011;32503;47.748;8.960;2022-12-16T00:58:00;9.77;;;6.63;;
3149;SDS011;32503;47.748;8.960;2022-12-16T01:00:27;9.33;;;6.17;;
3149;SDS011;32503;47.748;8.960;2022-12-16T01:02:54;8.90;;;6.60;;
3149;SDS011;32503;47.748;8.960;2022-12-16T01:05:22;11.07;;;7.00;;
3149;SDS011;32503;47.748;8.960;2022-12-16T01:07:51;6.07;;;5.47;;
3149;SDS011;32503;47.748;8.960;2022-12-16T01:10:19;9.57;;;7.00;;
3149;SDS011;32503;47.748;8.960;2022-12-16T01:12:48;8.33;;;6.20;;
3149;SDS011;32503;47.748;8.960;2022-12-16T01:15:15;8.50;;;6.30;;
3149;SDS011;32503;47.748;8.960;2022-12-16T01:17:43;9.30;;;6.63;;
3149;SDS011;32503;47.748;8.960;2022-12-16T01:20:10;11.13;;;6.83;;
3149;SDS011;32503;47.748;8.960;2022-12-16T01:22:38;14.20;;;7.73;;
3149;SDS011;32503;47.748;8.960;2022-12-16T01:25:05;7.63;;;6.30;;
3149;SDS011;32503;47.748;8.960;2022-12-16T01:27:35;13.13;;;8.00;;
3149;SDS011;32503;47.748;8.960;2022-12-16T01:30:03;9.80;;;7.60;;
3149;SDS011;32503;47.748;8.960;2022-12-16T01:32:33;14.57;;;9.30;;
3149;SDS011;32503;47.748;8.960;2022-12-16T01:35:00;14.50;;;8.53;;
3149;SDS011;32503;47.748;8.960;2022-12-16T01:37:27;10.27;;;7.63;;
3149;SDS011;32503;47.748;8.960;2022-12-16T01:39:54;13.97;;;7.57;;
3149;SDS011;32503;47.748;8.960;2022-12-16T01:42:21;9.13;;;6.90;;
3149;SDS011;32503;47.748;8.960;2022-12-16T01:44:52;10.10;;;7.23;;
3149;SDS011;32503;47.748;8.960;2022-12-16T01:47:23;8.77;;;7.33;;
3149;SDS011;32503;47.748;8.960;2022-12-16T01:49:57;8.50;;;7.13;;
3149;SDS011;32503;47.748;8.960;2022-12-16T01:52:30;11.93;;;7.07;;
3149;SDS011;32503;47.748;8.960;2022-12-16T01:55:04;7.60;;;6.47;;
3149;SDS011;32503;47.748;8.960;2022-12-16T01:57:35;9.93;;;7.03;;
3149;SDS011;32503;47.748;8.960;2022-12-16T02:00:08;8.10;;;6.40;;
3149;SDS011;32503;47.748;8.960;2022-12-16T02:02:38;10.87;;;7.67;;
3149;SDS011;32503;47.748;8.960;2022-12-16T02:05:08;9.83;;;6.20;;
3149;SDS011;32503;47.748;8.960;2022-12-16T02:07:52;9.03;;;7.60;;
3149;SDS011;32503;47.748;8.960;2022-12-16T02:10:26;12.83;;;8.13;;
3149;SDS011;32503;47.748;8.960;2022-12-16T02:13:03;7.77;;;6.97;;
3149;SDS011;32503;47.748;8.960;2022-12-16T02:15:43;10.77;;;7.30;;
3149;SDS011;32503;47.748;8.960;2022-12-16T02:18:21;10.17;;;8.13;;
3149;SDS011;32503;47.748;8.960;2022-12-16T02:21:22;11.13;;;7.93;;
3149;SDS011;32503;47.748;8.960;2022-12-16T02:27:29;8.87;;;6.33;;
3149;SDS011;32503;47.748;8.960;2022-12-16T02:30:26;7.80;;;6.30;;
3149;SDS011;32503;47.748;8.960;2022-12-16T02:33:30;9.10;;;6.50;;
3149;SDS011;32503;47.748;8.960;2022-12-16T02:36:30;7.77;;;6.03;;
3149;SDS011;32503;47.748;8.960;2022-12-16T02:39:13;9.77;;;7.33;;
3149;SDS011;32503;47.748;8.960;2022-12-16T02:41:46;13.63;;;9.10;;
3149;SDS011;32503;47.748;8.960;2022-12-16T02:44:24;9.80;;;6.83;;
3149;SDS011;32503;47.748;8.960;2022-12-16T02:47:00;10.93;;;8.30;;
3149;SDS011;32503;47.748;8.960;2022-12-16T02:49:44;13.57;;;7.30;;
3149;SDS011;32503;47.748;8.960;2022-12-16T02:52:14;8.87;;;7.33;;
3149;SDS011;32503;47.748;8.960;2022-12-16T02:54:45;8.40;;;6.80;;
3149;SDS011;32503;47.748;8.960;2022-12-16T02:57:17;12.40;;;7.40;;
3149;SDS011;32503;47.748;8.960;2022-12-16T03:00:06;10.97;;;7.80;;
3149;SDS011;32503;47.748;8.960;2022-12-16T03:02:40;13.90;;;8.03;;
3149;SDS011;32503;47.748;8.960;2022-12-16T03:05:19;8.10;;;7.23;;
3149;SDS011;32503;47.748;8.960;2022-12-16T03:07:50;12.93;;;7.37;;
3149;SDS011;32503;47.748;8.960;2022-12-16T03:10:20;10.50;;;6.70;;
3149;SDS011;32503;47.748;8.960;2022-12-16T03:13:00;9.97;;;6.83;;
3149;SDS011;32503;47.748;8.960;2022-12-16T03:15:31;13.47;;;6.87;;
3149;SDS011;32503;47.748;8.960;2022-12-16T03:18:01;9.20;;;7.83;;
3149;SDS011;32503;47.748;8.960;2022-12-16T03:20:31;11.57;;;8.13;;
3149;SDS011;32503;47.748;8.960;2022-12-16T03:23:05;14.23;;;7.00;;
3149;SDS011;32503;47.748;8.960;2022-12-16T03:25:40;13.10;;;7.07;;
3149;SDS011;32503;47.748;8.960;2022-12-16T03:28:12;12.00;;;7.37;;
3149;SDS011;32503;47.748;8.960;2022-12-16T03:30:55;13.43;;;7.80;;
3149;SDS011;32503;47.748;8.960;2022-12-16T03:33:33;11.67;;;8.20;;
3149;SDS011;32503;47.748;8.960;2022-12-16T03:36:07;12.00;;;8.17;;
3149;SDS011;32503;47.748;8.960;2022-12-16T03:38:38;12.37;;;7.27;;
3149;SDS011;32503;47.748;8.960;2022-12-16T03:41:06;10.63;;;7.27;;
3149;SDS011;32503;47.748;8.960;2022-12-16T03:43:34;7.37;;;6.67;;
3149;SDS011;32503;47.748;8.960;2022-12-16T03:46:03;11.20;;;7.00;;
3149;SDS011;32503;47.748;8.960;2022-12-16T03:48:34;7.93;;;7.00;;
3149;SDS011;32503;47.748;8.960;2022-12-16T03:51:02;8.63;;;6.70;;
3149;SDS011;32503;47.748;8.960;2022-12-16T03:53:29;9.13;;;7.00;;
3149;SDS011;32503;47.748;8.960;2022-12-16T03:55:56;11.27;;;7.73;;
3149;SDS011;32503;47.748;8.960;2022-12-16T03:58:23;11.87;;;8.27;;
3149;SDS011;32503;47.748;8.960;2022-12-16T04:00:50;8.40;;;7.20;;
3149;SDS011;32503;47.748;8.960;2022-12-16T04:03:18;13.47;;;7.40;;
3149;SDS011;32503;47.748;8.960;2022-12-16T04:05:51;13.10;;;8.03;;
3149;SDS011;32503;47.748;8.960;2022-12-16T04:08:19;12.70;;;7.90;;
3149;SDS011;32503;47.748;8.960;2022-12-16T04:10:48;11.37;;;8.27;;
3149;SDS011;32503;47.748;8.960;2022-12-16T04:13:35;12.93;;;7.70;;
3149;SDS011;32503;47.748;8.960;2022-12-16T04:16:19;7.67;;;6.90;;
3149;SDS011;32503;47.748;8.960;2022-12-16T04:19:04;9.47;;;7.10;;
3149;SDS011;32503;47.748;8.960;2022-12-16T04:21:50;9.93;;;7.17;;
3149;SDS011;32503;47.748;8.960;2022-12-16T04:24:40;9.50;;;7.20;;
3149;SDS011;32503;47.748;8.960;2022-12-16T04:27:07;11.80;;;7.50;;
3149;SDS011;32503;47.748;8.960;2022-12-16T04:29:49;11.90;;;8.17;;
3149;SDS011;32503;47.748;8.960;2022-12-16T04:32:34;11.07;;;7.97;;
3149;SDS011;32503;47.748;8.960;2022-12-16T04:35:15;10.53;;;7.13;;
3149;SDS011;32503;47.748;8.960;2022-12-16T04:37:57;11.03;;;7.63;;
3149;SDS011;32503;47.748;8.960;2022-12-16T04:40:42;8.73;;;6.90;;
3149;SDS011;32503;47.748;8.960;2022-12-16T04:43:26;11.07;;;8.13;;
3149;SDS011;32503;47.748;8.960;2022-12-16T04:46:11;9.40;;;7.90;;
3149;SDS011;32503;47.748;8.960;2022-12-16T04:48:55;11.40;;;8.17;;
3149;SDS011;32503;47.748;8.960;2022-12-16T04:51:40;11.97;;;8.07;;
3149;SDS011;32503;47.748;8.960;2022-12-16T04:54:26;13.97;;;8.17;;
3149;SDS011;32503;47.748;8.960;2022-12-16T04:57:11;14.70;;;8.70;;
3149;SDS011;32503;47.748;8.960;2022-12-16T05:00:01;18.73;;;9.63;;
3149;SDS011;32503;47.748;8.960;2022-12-16T05:02:47;15.03;;;8.20;;
3149;SDS011;32503;47.748;8.960;2022-12-16T05:05:32;15.33;;;9.10;;
3149;SDS011;32503;47.748;8.960;2022-12-16T05:08:16;11.30;;;8.37;;
3149;SDS011;32503;47.748;8.960;2022-12-16T05:11:02;14.43;;;8.30;;
3149;SDS011;32503;47.748;8.960;2022-12-16T05:13:47;19.90;;;9.10;;
3149;SDS011;32503;47.748;8.960;2022-12-16T05:16:32;16.57;;;9.47;;
3149;SDS011;32503;47.748;8.960;2022-12-16T05:19:17;15.50;;;8.77;;
3149;SDS011;32503;47.748;8.960;2022-12-16T05:22:01;15.90;;;9.73;;
3149;SDS011;32503;47.748;8.960;2022-12-16T05:24:46;19.67;;;9.50;;
3149;SDS011;32503;47.748;8.960;2022-12-16T05:27:32;14.33;;;9.63;;
3149;SDS011;32503;47.748;8.960;2022-12-16T05:30:17;14.77;;;9.00;;
3149;SDS011;32503;47.748;8.960;2022-12-16T05:33:02;14.60;;;9.03;;
3149;SDS011;32503;47.748;8.960;2022-12-16T05:35:46;13.30;;;8.13;;
3149;SDS011;32503;47.748;8.960;2022-12-16T05:38:31;17.53;;;8.70;;
3149;SDS011;32503;47.748;8.960;2022-12-16T05:41:16;18.80;;;10.47;;
3149;SDS011;32503;47.748;8.960;2022-12-16T05:44:02;20.30;;;9.00;;
3149;SDS011;32503;47.748;8.960;2022-12-16T05:46:47;31.03;;;11.67;;
3149;SDS011;32503;47.748;8.960;2022-12-16T05:49:32;16.80;;;10.30;;
3149;SDS011;32503;47.748;8.960;2022-12-16T05:52:16;19.10;;;8.27;;
3149;SDS011;32503;47.748;8.960;2022-12-16T05:55:01;15.53;;;9.33;;
3149;SDS011;32503;47.748;8.960;2022-12-16T05:57:47;13.63;;;9.00;;
3149;SDS011;32503;47.748;8.960;2022-12-16T06:00:34;19.23;;;10.20;;
3149;SDS011;32503;47.748;8.960;2022-12-16T06:03:18;23.93;;;11.43;;
3149;SDS011;32503;47.748;8.960;2022-12-16T06:06:03;24.27;;;11.80;;
3149;SDS011;32503;47.748;8.960;2022-12-16T06:08:48;21.80;;;9.30;;
3149;SDS011;32503;47.748;8.960;2022-12-16T06:11:33;20.77;;;11.50;;
3149;SDS011;32503;47.748;8.960;2022-12-16T06:14:18;22.07;;;10.57;;
3149;SDS011;32503;47.748;8.960;2022-12-16T06:17:04;17.77;;;9.97;;
3149;SDS011;32503;47.748;8.960;2022-12-16T06:19:48;20.33;;;11.40;;
3149;SDS011;32503;47.748;8.960;2022-12-16T06:22:33;23.60;;;10.30;;
3149;SDS011;32503;47.748;8.960;2022-12-16T06:25:17;26.23;;;12.10;;
3149;SDS011;32503;47.748;8.960;2022-12-16T06:28:02;11.80;;;6.90;;
3149;SDS011;32503;47.748;8.960;2022-12-16T06:30:47;15.67;;;9.47;;
3149;SDS011;32503;47.748;8.960;2022-12-16T06:33:33;21.40;;;11.43;;
3149;SDS011;32503;47.748;8.960;2022-12-16T06:36:18;23.53;;;11.03;;
3149;SDS011;32503;47.748;8.960;2022-12-16T06:39:02;17.70;;;10.90;;
3149;SDS011;32503;47.748;8.960;2022-12-16T06:41:47;23.90;;;12.27;;
3149;SDS011;32503;47.748;8.960;2022-12-16T06:44:32;20.80;;;11.67;;
3149;SDS011;32503;47.748;8.960;2022-12-16T06:47:16;23.97;;;11.37;;
3149;SDS011;32503;47.748;8.960;2022-12-16T06:50:02;25.30;;;12.30;;
3149;SDS011;32503;47.748;8.960;2022-12-16T06:52:48;19.80;;;11.67;;
3149;SDS011;32503;47.748;8.960;2022-12-16T06:55:33;22.37;;;11.80;;
3149;SDS011;32503;47.748;8.960;2022-12-16T06:58:17;19.40;;;10.50;;
3149;SDS011;32503;47.748;8.960;2022-12-16T07:01:02;24.33;;;12.20;;
3149;SDS011;32503;47.748;8.960;2022-12-16T07:03:47;22.17;;;13.13;;
3149;SDS011;32503;47.748;8.960;2022-12-16T07:06:33;18.80;;;10.10;;
3149;SDS011;32503;47.748;8.960;2022-12-16T07:09:17;23.63;;;12.60;;
3149;SDS011;32503;47.748;8.960;2022-12-16T07:12:02;27.23;;;12.00;;
3149;SDS011;32503;47.748;8.960;2022-12-16T07:14:47;23.27;;;12.80;;
3149;SDS011;32503;47.748;8.960;2022-12-16T07:17:32;22.37;;;11.43;;
3149;SDS011;32503;47.748;8.960;2022-12-16T07:20:17;22.00;;;11.10;;
3149;SDS011;32503;47.748;8.960;2022-12-16T07:23:03;25.40;;;12.33;;
3149;SDS011;32503;47.748;8.960;2022-12-16T07:25:48;20.80;;;12.07;;
3149;SDS011;32503;47.748;8.960;2022-12-16T07:28:32;19.60;;;11.57;;
3149;SDS011;32503;47.748;8.960;2022-12-16T07:31:17;28.93;;;12.93;;
3149;SDS011;32503;47.748;8.960;2022-12-16T07:34:01;28.17;;;12.93;;
3149;SDS011;32503;47.748;8.960;2022-12-16T07:36:51;24.17;;;13.57;;
3149;SDS011;32503;47.748;8.960;2022-12-16T07:39:37;23.70;;;12.67;;
3149;SDS011;32503;47.748;8.960;2022-12-16T07:42:22;22.77;;;11.97;;
3149;SDS011;32503;47.748;8.960;2022-12-16T07:45:07;22.70;;;12.30;;
3149;SDS011;32503;47.748;8.960;2022-12-16T07:47:53;20.67;;;11.97;;
3149;SDS011;32503;47.748;8.960;2022-12-16T07:50:38;27.03;;;12.37;;
3149;SDS011;32503;47.748;8.960;2022-12-16T07:53:23;20.23;;;11.90;;
3149;SDS011;32503;47.748;8.960;2022-12-16T07:56:09;23.20;;;12.90;;
3149;SDS011;32503;47.748;8.960;2022-12-16T07:58:54;22.53;;;12.80;;
3149;SDS011;32503;47.748;8.960;2022-12-16T08:01:53;20.13;;;10.53;;
3149;SDS011;32503;47.748;8.960;2022-12-16T08:04:38;25.47;;;11.97;;
3149;SDS011;32503;47.748;8.960;2022-12-16T08:07:23;24.07;;;12.27;;
3149;SDS011;32503;47.748;8.960;2022-12-16T08:10:04;22.67;;;12.70;;
3149;SDS011;32503;47.748;8.960;2022-12-16T08:12:51;27.07;;;13.50;;
3149;SDS011;32503;47.748;8.960;2022-12-16T08:15:42;26.87;;;12.10;;
3149;SDS011;32503;47.748;8.960;2022-12-16T08:18:28;23.50;;;12.10;;
3149;SDS011;32503;47.748;8.960;2022-12-16T08:21:13;25.73;;;13.10;;
3149;SDS011;32503;47.748;8.960;2022-12-16T08:23:58;20.00;;;10.50;;
3149;SDS011;32503;47.748;8.960;2022-12-16T08:26:43;24.27;;;11.90;;
3149;SDS011;32503;47.748;8.960;2022-12-16T08:29:29;22.03;;;10.70;;
3149;SDS011;32503;47.748;8.960;2022-12-16T08:32:13;23.07;;;12.87;;
3149;SDS011;32503;47.748;8.960;2022-12-16T08:34:58;26.23;;;12.30;;
3149;SDS011;32503;47.748;8.960;2022-12-16T08:37:43;25.33;;;12.50;;
3149;SDS011;32503;47.748;8.960;2022-12-16T08:40:36;24.13;;;12.17;;
3149;SDS011;32503;47.748;8.960;2022-12-16T08:43:21;18.97;;;10.43;;
3149;SDS011;32503;47.748;8.960;2022-12-16T08:46:07;24.73;;;12.50;;
3149;SDS011;32503;47.748;8.960;2022-12-16T08:48:51;18.50;;;11.53;;
3149;SDS011;32503;47.748;8.960;2022-12-16T08:51:36;18.80;;;12.40;;
3149;SDS011;32503;47.748;8.960;2022-12-16T08:54:21;25.20;;;13.03;;
3149;SDS011;32503;47.748;8.960;2022-12-16T08:57:05;25.30;;;11.07;;
3149;SDS011;32503;47.748;8.960;2022-12-16T08:59:50;23.87;;;13.20;;
3149;SDS011;32503;47.748;8.960;2022-12-16T09:02:36;21.63;;;12.00;;
3149;SDS011;32503;47.748;8.960;2022-12-16T09:05:20;36.20;;;12.43;;
3149;SDS011;32503;47.748;8.960;2022-12-16T09:08:05;20.50;;;10.87;;
3149;SDS011;32503;47.748;8.960;2022-12-16T09:10:50;20.13;;;10.90;;
3149;SDS011;32503;47.748;8.960;2022-12-16T09:13:34;20.10;;;11.10;;
3149;SDS011;32503;47.748;8.960;2022-12-16T09:16:19;18.23;;;10.97;;
3149;SDS011;32503;47.748;8.960;2022-12-16T09:19:05;16.83;;;9.90;;
3149;SDS011;32503;47.748;8.960;2022-12-16T09:21:52;18.50;;;10.20;;
3149;SDS011;32503;47.748;8.960;2022-12-16T09:24:36;21.33;;;11.60;;
3149;SDS011;32503;47.748;8.960;2022-12-16T09:27:20;17.87;;;11.07;;
3149;SDS011;32503;47.748;8.960;2022-12-16T09:30:05;19.93;;;10.00;;
3149;SDS011;32503;47.748;8.960;2022-12-16T09:32:57;18.43;;;9.40;;
3149;SDS011;32503;47.748;8.960;2022-12-16T09:35:45;13.10;;;9.30;;
3149;SDS011;32503;47.748;8.960;2022-12-16T09:38:30;13.70;;;9.17;;
3149;SDS011;32503;47.748;8.960;2022-12-16T09:41:25;21.70;;;11.00;;
3149;SDS011;32503;47.748;8.960;2022-12-16T09:44:22;17.90;;;11.57;;
3149;SDS011;32503;47.748;8.960;2022-12-16T09:47:25;16.27;;;10.00;;
3149;SDS011;32503;47.748;8.960;2022-12-16T09:50:20;18.50;;;11.03;;
3149;SDS011;32503;47.748;8.960;2022-12-16T09:53:18;13.03;;;9.07;;
3149;SDS011;32503;47.748;8.960;2022-12-16T09:56:06;23.23;;;9.97;;
3149;SDS011;32503;47.748;8.960;2022-12-16T09:58:59;20.53;;;10.60;;
3149;SDS011;32503;47.748;8.960;2022-12-16T10:01:50;18.20;;;10.70;;
3149;SDS011;32503;47.748;8.960;2022-12-16T10:04:36;17.97;;;11.23;;
3149;SDS011;32503;47.748;8.960;2022-12-16T10:07:21;13.83;;;9.60;;
3149;SDS011;32503;47.748;8.960;2022-12-16T10:10:14;17.60;;;10.43;;
3149;SDS011;32503;47.748;8.960;2022-12-16T10:13:06;20.30;;;11.20;;
3149;SDS011;32503;47.748;8.960;2022-12-16T10:16:01;17.03;;;10.00;;
3149;SDS011;32503;47.748;8.960;2022-12-16T10:18:59;16.53;;;10.40;;
3149;SDS011;32503;47.748;8.960;2022-12-16T10:21:56;19.47;;;10.33;;
3149;SDS011;32503;47.748;8.960;2022-12-16T10:24:51;16.70;;;9.30;;
3149;SDS011;32503;47.748;8.960;2022-12-16T10:27:59;12.70;;;8.20;;
3149;SDS011;32503;47.748;8.960;2022-12-16T10:30:58;12.47;;;8.33;;
3149;SDS011;32503;47.748;8.960;2022-12-16T10:33:44;16.10;;;10.03;;
3149;SDS011;32503;47.748;8.960;2022-12-16T10:36:32;20.43;;;11.37;;
3149;SDS011;32503;47.748;8.960;2022-12-16T10:39:22;18.13;;;10.50;;
3149;SDS011;32503;47.748;8.960;2022-12-16T10:42:17;13.30;;;9.27;;
3149;SDS011;32503;47.748;8.960;2022-12-16T10:45:13;16.87;;;10.47;;
3149;SDS011;32503;47.748;8.960;2022-12-16T10:48:04;16.47;;;9.57;;
3149;SDS011;32503;47.748;8.960;2022-12-16T10:50:49;19.50;;;10.30;;
3149;SDS011;32503;47.748;8.960;2022-12-16T10:53:33;16.33;;;11.23;;
3149;SDS011;32503;47.748;8.960;2022-12-16T10:56:33;20.63;;;11.20;;
3149;SDS011;32503;47.748;8.960;2022-12-16T10:59:36;14.50;;;9.57;;
3149;SDS011;32503;47.748;8.960;2022-12-16T11:02:25;18.53;;;9.73;;
3149;SDS011;32503;47.748;8.960;2022-12-16T11:05:30;17.43;;;11.47;;
3149;SDS011;32503;47.748;8.960;2022-12-16T11:08:24;17.53;;;10.20;;
3149;SDS011;32503;47.748;8.960;2022-12-16T11:11:11;19.13;;;11.13;;
3149;SDS011;32503;47.748;8.960;2022-12-16T11:14:15;14.40;;;9.60;;
3149;SDS011;32503;47.748;8.960;2022-12-16T11:17:15;20.50;;;11.13;;
3149;SDS011;32503;47.748;8.960;2022-12-16T11:20:10;18.67;;;10.90;;
3149;SDS011;32503;47.748;8.960;2022-12-16T11:23:07;21.40;;;12.27;;
3149;SDS011;32503;47.748;8.960;2022-12-16T11:26:08;18.27;;;10.87;;
3149;SDS011;32503;47.748;8.960;2022-12-16T11:29:03;21.00;;;12.07;;
3149;SDS011;32503;47.748;8.960;2022-12-16T11:31:53;20.03;;;11.50;;
3149;SDS011;32503;47.748;8.960;2022-12-16T11:34:44;23.83;;;12.63;;
3149;SDS011;32503;47.748;8.960;2022-12-16T11:37:36;17.17;;;11.50;;
3149;SDS011;32503;47.748;8.960;2022-12-16T11:40:24;28.07;;;13.00;;
3149;SDS011;32503;47.748;8.960;2022-12-16T11:43:09;23.23;;;14.10;;
3149;SDS011;32503;47.748;8.960;2022-12-16T11:45:56;15.83;;;11.43;;
3149;SDS011;32503;47.748;8.960;2022-12-16T11:48:45;23.30;;;13.37;;
3149;SDS011;32503;47.748;8.960;2022-12-16T11:51:34;23.77;;;12.63;;
3149;SDS011;32503;47.748;8.960;2022-12-16T11:54:22;23.43;;;11.53;;
3149;SDS011;32503;47.748;8.960;2022-12-16T11:57:15;21.63;;;14.67;;
3149;SDS011;32503;47.748;8.960;2022-12-16T12:00:08;24.33;;;13.13;;
3149;SDS011;32503;47.748;8.960;2022-12-16T12:03:00;26.27;;;13.87;;
3149;SDS011;32503;47.748;8.960;2022-12-16T12:05:53;22.17;;;11.77;;
3149;SDS011;32503;47.748;8.960;2022-12-16T12:08:47;25.07;;;12.00;;
3149;SDS011;32503;47.748;8.960;2022-12-16T12:11:42;22.57;;;12.20;;
3149;SDS011;32503;47.748;8.960;2022-12-16T12:14:35;20.10;;;12.47;;
3149;SDS011;32503;47.748;8.960;2022-12-16T12:17:31;19.97;;;12.63;;
3149;SDS011;32503;47.748;8.960;2022-12-16T12:20:33;25.57;;;14.00;;
3149;SDS011;32503;47.748;8.960;2022-12-16T12:23:32;23.17;;;13.40;;
3149;SDS011;32503;47.748;8.960;2022-12-16T12:26:27;37.53;;;18.27;;
3149;SDS011;32503;47.748;8.960;2022-12-16T12:29:17;34.90;;;19.03;;
3149;SDS011;32503;47.748;8.960;2022-12-16T12:32:14;25.27;;;14.90;;
3149;SDS011;32503;47.748;8.960;2022-12-16T12:35:16;33.37;;;15.07;;
3149;SDS011;32503;47.748;8.960;2022-12-16T12:38:14;24.53;;;14.63;;
3149;SDS011;32503;47.748;8.960;2022-12-16T12:41:05;22.60;;;13.03;;
3149;SDS011;32503;47.748;8.960;2022-12-16T12:44:07;30.53;;;15.53;;
3149;SDS011;32503;47.748;8.960;2022-12-16T12:47:05;26.33;;;14.43;;
3149;SDS011;32503;47.748;8.960;2022-12-16T12:49:54;25.20;;;14.23;;
3149;SDS011;32503;47.748;8.960;2022-12-16T12:52:58;22.90;;;13.63;;
3149;SDS011;32503;47.748;8.960;2022-12-16T12:56:03;24.53;;;13.03;;
3149;SDS011;32503;47.748;8.960;2022-12-16T12:58:57;18.70;;;13.90;;
3149;SDS011;32503;47.748;8.960;2022-12-16T13:01:48;20.77;;;13.93;;
3149;SDS011;32503;47.748;8.960;2022-12-16T13:04:37;21.00;;;13.57;;
3149;SDS011;32503;47.748;8.960;2022-12-16T13:07:31;21.70;;;12.80;;
3149;SDS011;32503;47.748;8.960;2022-12-16T13:13:28;26.10;;;13.70;;
3149;SDS011;32503;47.748;8.960;2022-12-16T13:19:53;25.60;;;13.10;;
3149;SDS011;32503;47.748;8.960;2022-12-16T13:22:39;20.20;;;13.20;;
3149;SDS011;32503;47.748;8.960;2022-12-16T13:25:33;21.27;;;12.27;;
3149;SDS011;32503;47.748;8.960;2022-12-16T13:28:23;29.03;;;13.50;;
3149;SDS011;32503;47.748;8.960;2022-12-16T13:31:12;29.13;;;15.07;;
3149;SDS011;32503;47.748;8.960;2022-12-16T13:34:00;24.43;;;13.53;;
3149;SDS011;32503;47.748;8.960;2022-12-16T13:36:55;17.47;;;12.20;;
3149;SDS011;32503;47.748;8.960;2022-12-16T13:39:41;21.60;;;13.50;;
3149;SDS011;32503;47.748;8.960;2022-12-16T13:42:34;21.97;;;12.50;;
3149;SDS011;32503;47.748;8.960;2022-12-16T13:45:42;23.10;;;12.73;;
3149;SDS011;32503;47.748;8.960;2022-12-16T13:48:48;22.47;;;12.27;;
3149;SDS011;32503;47.748;8.960;2022-12-16T13:55:05;22.20;;;12.50;;
3149;SDS011;32503;47.748;8.960;2022-12-16T13:58:08;20.30;;;11.33;;
3149;SDS011;32503;47.748;8.960;2022-12-16T14:01:04;29.70;;;14.80;;
3149;SDS011;32503;47.748;8.960;2022-12-16T14:04:09;23.13;;;13.63;;
3149;SDS011;32503;47.748;8.960;2022-12-16T14:07:02;23.47;;;12.97;;
3149;SDS011;32503;47.748;8.960;2022-12-16T14:09:47;26.20;;;13.43;;
3149;SDS011;32503;47.748;8.960;2022-12-16T14:12:39;23.17;;;11.97;;
3149;SDS011;32503;47.748;8.960;2022-12-16T14:15:39;17.40;;;11.30;;
3149;SDS011;32503;47.748;8.960;2022-12-16T14:18:47;19.23;;;11.50;;
3149;SDS011;32503;47.748;8.960;2022-12-16T14:21:50;16.67;;;10.93;;
3149;SDS011;32503;47.748;8.960;2022-12-16T14:24:43;20.90;;;11.33;;
3149;SDS011;32503;47.748;8.960;2022-12-16T14:27:28;18.30;;;10.40;;
3149;SDS011;32503;47.748;8.960;2022-12-16T14:30:17;21.20;;;11.27;;
3149;SDS011;32503;47.748;8.960;2022-12-16T14:33:14;24.20;;;11.67;;
3149;SDS011;32503;47.748;8.960;2022-12-16T14:36:15;23.67;;;12.93;;
3149;SDS011;32503;47.748;8.960;2022-12-16T14:39:06;17.97;;;11.13;;
3149;SDS011;32503;47.748;8.960;2022-12-16T14:41:54;13.33;;;10.03;;
3149;SDS011;32503;47.748;8.960;2022-12-16T14:44:39;16.27;;;9.60;;
3149;SDS011;32503;47.748;8.960;2022-12-16T14:47:26;17.17;;;10.20;;
3149;SDS011;32503;47.748;8.960;2022-12-16T14:50:18;14.70;;;9.93;;
3149;SDS011;32503;47.748;8.960;2022-12-16T14:53:14;14.67;;;10.13;;
3149;SDS011;32503;47.748;8.960;2022-12-16T14:56:20;19.10;;;11.07;;
3149;SDS011;32503;47.748;8.960;2022-12-16T15:01:55;19.93;;;10.80;;
3149;SDS011;32503;47.748;8.960;2022-12-16T15:04:52;17.70;;;10.23;;
3149;SDS011;32503;47.748;8.960;2022-12-16T15:07:37;17.67;;;10.10;;
3149;SDS011;32503;47.748;8.960;2022-12-16T15:10:23;16.50;;;9.77;;
3149;SDS011;32503;47.748;8.960;2022-12-16T15:13:13;18.43;;;10.17;;
3149;SDS011;32503;47.748;8.960;2022-12-16T15:16:00;22.53;;;11.63;;
3149;SDS011;32503;47.748;8.960;2022-12-16T15:18:46;19.03;;;10.80;;
3149;SDS011;32503;47.748;8.960;2022-12-16T15:21:43;18.07;;;11.30;;
3149;SDS011;32503;47.748;8.960;2022-12-16T15:24:29;16.80;;;10.17;;
3149;SDS011;32503;47.748;8.960;2022-12-16T15:27:32;13.00;;;9.20;;
3149;SDS011;32503;47.748;8.960;2022-12-16T15:30:39;18.20;;;10.53;;
3149;SDS011;32503;47.748;8.960;2022-12-16T15:33:26;21.20;;;11.40;;
3149;SDS011;32503;47.748;8.960;2022-12-16T15:36:18;12.40;;;9.50;;
3149;SDS011;32503;47.748;8.960;2022-12-16T15:39:14;16.87;;;10.40;;
3149;SDS011;32503;47.748;8.960;2022-12-16T15:42:03;18.30;;;11.43;;
3149;SDS011;32503;47.748;8.960;2022-12-16T15:44:54;13.97;;;10.00;;
3149;SDS011;32503;47.748;8.960;2022-12-16T15:47:40;18.23;;;10.47;;
3149;SDS011;32503;47.748;8.960;2022-12-16T15:50:25;18.40;;;10.30;;
3149;SDS011;32503;47.748;8.960;2022-12-16T15:53:15;13.43;;;8.93;;
3149;SDS011;32503;47.748;8.960;2022-12-16T15:56:18;13.77;;;9.77;;
3149;SDS011;32503;47.748;8.960;2022-12-16T15:59:18;15.87;;;9.03;;
3149;SDS011;32503;47.748;8.960;2022-12-16T16:02:12;20.00;;;11.43;;
3149;SDS011;32503;47.748;8.960;2022-12-16T16:05:06;24.70;;;11.87;;
3149;SDS011;32503;47.748;8.960;2022-12-16T16:07:55;18.13;;;9.40;;
3149;SDS011;32503;47.748;8.960;2022-12-16T16:10:40;19.03;;;13.10;;
3149;SDS011;32503;47.748;8.960;2022-12-16T16:13:40;16.97;;;11.17;;
3149;SDS011;32503;47.748;8.960;2022-12-16T16:16:24;10.37;;;9.20;;
3149;SDS011;32503;47.748;8.960;2022-12-16T16:19:09;12.30;;;8.40;;
3149;SDS011;32503;47.748;8.960;2022-12-16T16:22:00;11.17;;;8.30;;
3149;SDS011;32503;47.748;8.960;2022-12-16T16:24:44;20.43;;;8.73;;
3149;SDS011;32503;47.748;8.960;2022-12-16T16:27:29;14.03;;;7.87;;
3149;SDS011;32503;47.748;8.960;2022-12-16T16:30:14;11.37;;;8.33;;
3149;SDS011;32503;47.748;8.960;2022-12-16T16:32:59;13.67;;;8.50;;
3149;SDS011;32503;47.748;8.960;2022-12-16T16:35:44;15.10;;;10.13;;
3149;SDS011;32503;47.748;8.960;2022-12-16T16:38:29;19.40;;;10.50;;
3149;SDS011;32503;47.748;8.960;2022-12-16T16:41:14;14.03;;;9.60;;
3149;SDS011;32503;47.748;8.960;2022-12-16T16:43:59;11.50;;;8.43;;